Santa Lucia — A8IP5 — position and weather

sailwx.info

Track history (hours):
 
Tides and Currents Weather Stations Pressure Air Temp Water Temp Dewpoint Dewpoint Depression Visibility Wind Speed Wind Dir Waves Ship Positions

Santa Lucia

Last reported at 2017-Apr-26 13:10 UTC. Time now 2017-Apr-30 18:37 UTC.
Position N 35°59' W 005°06'.

Length 143 m; beam 22 m.

Type: Cargo ship. MMSI: 636091017.

Date/timePositionNaut miles runAvg speedWind from/ knotsBaromVisibWave heightAir tempDewpointWater temp
2017-Apr-26 13:10N 35°59' W 005°06'319.1
2017-Apr-26 12:59N 35°59' W 005°10'919.4
2017-Apr-26 12:30N 35°59' W 005°21'918.3
2017-Apr-26 12:01N 35°56' W 005°32'816.4
2017-Apr-26 11:30N 35°55' W 005°42'815.4
2017-Apr-26 10:58N 35°55' W 005°53'  
2017-Apr-18 11:00N 18°22' W 063°24'815.7
2017-Apr-18 10:30N 18°16' W 063°28'815.8
2017-Apr-18 10:00N 18°08' W 063°32'915.7
2017-Apr-18 09:27N 18°01' W 063°36'  
Track history (hours):
 
Tides and Currents Weather Stations Pressure Air Temp Water Temp Dewpoint Dewpoint Depression Visibility Wind Speed Wind Dir Waves Ship Positions

Santa Lucia

Last reported at 2017-Apr-26 13:10 UTC. Time now 2017-Apr-30 18:37 UTC.
Position N 35°59' W 005°06'.

Length 143 m; beam 22 m.

Type: Cargo ship. MMSI: 636091017.

Date/timePositionNaut miles runAvg speedWind from/ knotsBaromVisibWave heightAir tempDewpointWater temp
2017-Apr-26 13:10N 35°59' W 005°06'319.1
2017-Apr-26 12:59N 35°59' W 005°10'919.4
2017-Apr-26 12:30N 35°59' W 005°21'918.3
2017-Apr-26 12:01N 35°56' W 005°32'816.4
2017-Apr-26 11:30N 35°55' W 005°42'815.4
2017-Apr-26 10:58N 35°55' W 005°53'  
2017-Apr-18 11:00N 18°22' W 063°24'815.7
2017-Apr-18 10:30N 18°16' W 063°28'815.8
2017-Apr-18 10:00N 18°08' W 063°32'915.7
2017-Apr-18 09:27N 18°01' W 063°36'  

Dump ship's entire track history